Terminal Aerodrome Forecast
Issued by NWS

Home | Current Version | Previous Version | Text Only | Print | Product List | Glossary On
Versions: 1 2 3 4 5 6 7 8 9 10 11 12 13 14 15 16 17 18 19 20 21 22 23
000
FTUS45 KREV 122300
TAFTRK
TAF
KTRK 122323Z 1300/1324 26009KT P6SM SCT080
     FM130200 VRB03KT P6SM SKC
     FM131900 22008KT P6SM FEW060
      AMD NOT SKED 1302/1312=

USA.gov is the U.S. government's official web portal to all federal, state and local government web resources and services.